Redan, Georgia
Current Conditions -  °F | °C
As of 7:53 AM on Wednesday 22 Oct 2014 (Local Time) from KPDK Reporting Station
Clear Clear  
Wind Chill: 45°   Ceiling: Unl
Heat Index: 45°   Visibility: 10mi
Dew Point: 37°   Wind: 3mph
Humidity: 74%   Direction: 340°NNW
Pressure: 30.08"   Gusts: NA
Location:  33.75°N, 84.13°W
Report Text: KPDK 221153Z 34003KT 10SM CLR 07/03 A3008 RMK AO2 SLP185 T00720028 10117 20072 53014
Loading
Personal Weather Stations






























Interactive Weather Map
Tropical Storm Tracking
New forecast layout! Learn more

10-Day Weather Forecast

Advertisements
Track Severe Weather on mobile